sensor_id;sensor_type;location;lat;lon;timestamp;pressure;altitude;pressure_sealevel;temperature
12430;BMP280;6279;42.192;24.326;2022-12-11T00:01:25;97165.44;;;10.82
12430;BMP280;6279;42.192;24.326;2022-12-11T00:03:50;97135.06;;;11.00
12430;BMP280;6279;42.192;24.326;2022-12-11T00:06:18;97147.50;;;10.98
12430;BMP280;6279;42.192;24.326;2022-12-11T00:08:47;97190.63;;;11.05
12430;BMP280;6279;42.192;24.326;2022-12-11T00:11:15;97196.91;;;10.98
12430;BMP280;6279;42.192;24.326;2022-12-11T00:13:41;97158.97;;;10.91
12430;BMP280;6279;42.192;24.326;2022-12-11T00:16:07;97157.78;;;10.87
12430;BMP280;6279;42.192;24.326;2022-12-11T00:18:32;97197.53;;;10.94
12430;BMP280;6279;42.192;24.326;2022-12-11T00:21:02;97224.94;;;10.90
12430;BMP280;6279;42.192;24.326;2022-12-11T00:23:29;97160.28;;;10.99
12430;BMP280;6279;42.192;24.326;2022-12-11T00:25:54;97118.09;;;10.97
12430;BMP280;6279;42.192;24.326;2022-12-11T00:28:19;97190.91;;;10.97
12430;BMP280;6279;42.192;24.326;2022-12-11T00:30:45;97168.09;;;10.99
12430;BMP280;6279;42.192;24.326;2022-12-11T00:33:12;97120.41;;;11.05
12430;BMP280;6279;42.192;24.326;2022-12-11T00:35:43;97178.06;;;11.02
12430;BMP280;6279;42.192;24.326;2022-12-11T00:38:16;97203.97;;;10.91
12430;BMP280;6279;42.192;24.326;2022-12-11T00:40:42;97095.59;;;11.09
12430;BMP280;6279;42.192;24.326;2022-12-11T00:43:08;97121.53;;;11.16
12430;BMP280;6279;42.192;24.326;2022-12-11T00:45:38;97151.72;;;11.17
12430;BMP280;6279;42.192;24.326;2022-12-11T00:48:05;97128.31;;;11.17
12430;BMP280;6279;42.192;24.326;2022-12-11T00:50:31;97123.47;;;11.20
12430;BMP280;6279;42.192;24.326;2022-12-11T00:52:56;97124.25;;;11.20
12430;BMP280;6279;42.192;24.326;2022-12-11T00:55:22;97146.88;;;11.20
12430;BMP280;6279;42.192;24.326;2022-12-11T00:57:50;97083.53;;;11.32
12430;BMP280;6279;42.192;24.326;2022-12-11T01:00:16;97085.03;;;11.22
12430;BMP280;6279;42.192;24.326;2022-12-11T01:02:41;97093.06;;;11.20
12430;BMP280;6279;42.192;24.326;2022-12-11T01:05:08;97094.16;;;11.31
12430;BMP280;6279;42.192;24.326;2022-12-11T01:07:33;97088.09;;;11.37
12430;BMP280;6279;42.192;24.326;2022-12-11T01:09:59;97103.81;;;11.24
12430;BMP280;6279;42.192;24.326;2022-12-11T01:12:43;97126.78;;;11.09
12430;BMP280;6279;42.192;24.326;2022-12-11T01:15:08;97099.56;;;11.29
12430;BMP280;6279;42.192;24.326;2022-12-11T01:17:35;97054.25;;;11.19
12430;BMP280;6279;42.192;24.326;2022-12-11T01:20:01;97057.06;;;11.17
12430;BMP280;6279;42.192;24.326;2022-12-11T01:22:28;97047.97;;;11.09
12430;BMP280;6279;42.192;24.326;2022-12-11T01:24:54;97090.88;;;11.00
12430;BMP280;6279;42.192;24.326;2022-12-11T01:27:19;97058.72;;;10.95
12430;BMP280;6279;42.192;24.326;2022-12-11T01:29:44;97048.91;;;10.96
12430;BMP280;6279;42.192;24.326;2022-12-11T01:32:10;97033.00;;;11.04
12430;BMP280;6279;42.192;24.326;2022-12-11T01:34:35;97005.28;;;11.16
12430;BMP280;6279;42.192;24.326;2022-12-11T01:37:01;97002.31;;;11.13
12430;BMP280;6279;42.192;24.326;2022-12-11T01:39:26;97005.97;;;11.05
12430;BMP280;6279;42.192;24.326;2022-12-11T01:41:57;97037.63;;;11.02
12430;BMP280;6279;42.192;24.326;2022-12-11T01:46:48;96991.91;;;10.95
12430;BMP280;6279;42.192;24.326;2022-12-11T01:49:14;96978.47;;;10.98
12430;BMP280;6279;42.192;24.326;2022-12-11T01:51:45;96984.13;;;10.95
12430;BMP280;6279;42.192;24.326;2022-12-11T01:54:13;96987.44;;;11.02
12430;BMP280;6279;42.192;24.326;2022-12-11T01:56:40;96995.19;;;10.91
12430;BMP280;6279;42.192;24.326;2022-12-11T01:59:08;96995.88;;;10.80
12430;BMP280;6279;42.192;24.326;2022-12-11T02:01:44;96975.66;;;10.82
12430;BMP280;6279;42.192;24.326;2022-12-11T02:04:11;97000.50;;;10.95
12430;BMP280;6279;42.192;24.326;2022-12-11T02:06:41;97028.25;;;11.01
12430;BMP280;6279;42.192;24.326;2022-12-11T02:09:09;97034.44;;;11.00
12430;BMP280;6279;42.192;24.326;2022-12-11T02:11:54;97019.56;;;11.07
12430;BMP280;6279;42.192;24.326;2022-12-11T02:14:44;97018.41;;;11.03
12430;BMP280;6279;42.192;24.326;2022-12-11T02:20:12;97012.97;;;11.22
12430;BMP280;6279;42.192;24.326;2022-12-11T02:27:44;96969.56;;;11.05
12430;BMP280;6279;42.192;24.326;2022-12-11T02:30:13;96971.81;;;11.02
12430;BMP280;6279;42.192;24.326;2022-12-11T02:35:17;96959.75;;;10.90
12430;BMP280;6279;42.192;24.326;2022-12-11T02:37:46;96958.84;;;10.84
12430;BMP280;6279;42.192;24.326;2022-12-11T02:40:16;96953.19;;;10.87
12430;BMP280;6279;42.192;24.326;2022-12-11T02:42:46;96959.28;;;10.81
12430;BMP280;6279;42.192;24.326;2022-12-11T02:45:13;96999.78;;;10.89
12430;BMP280;6279;42.192;24.326;2022-12-11T02:47:41;97028.69;;;10.98
12430;BMP280;6279;42.192;24.326;2022-12-11T02:50:10;97046.88;;;10.98
12430;BMP280;6279;42.192;24.326;2022-12-11T02:52:40;97003.81;;;11.02
12430;BMP280;6279;42.192;24.326;2022-12-11T02:55:07;97042.47;;;10.99
12430;BMP280;6279;42.192;24.326;2022-12-11T02:57:41;97027.16;;;10.91
12430;BMP280;6279;42.192;24.326;2022-12-11T03:00:09;97027.16;;;10.91
12430;BMP280;6279;42.192;24.326;2022-12-11T03:02:35;97024.56;;;10.91
12430;BMP280;6279;42.192;24.326;2022-12-11T03:05:02;97044.13;;;10.94
12430;BMP280;6279;42.192;24.326;2022-12-11T03:07:31;96995.00;;;10.86
12430;BMP280;6279;42.192;24.326;2022-12-11T03:09:58;97041.44;;;10.82
12430;BMP280;6279;42.192;24.326;2022-12-11T03:12:28;97040.16;;;10.73
12430;BMP280;6279;42.192;24.326;2022-12-11T03:14:56;97031.91;;;10.76
12430;BMP280;6279;42.192;24.326;2022-12-11T03:20:46;97055.88;;;10.78
12430;BMP280;6279;42.192;24.326;2022-12-11T03:28:22;97014.34;;;10.90
12430;BMP280;6279;42.192;24.326;2022-12-11T03:30:52;97038.50;;;10.96
12430;BMP280;6279;42.192;24.326;2022-12-11T03:33:31;97035.38;;;11.06
12430;BMP280;6279;42.192;24.326;2022-12-11T03:36:05;97025.78;;;11.06
12430;BMP280;6279;42.192;24.326;2022-12-11T03:39:02;97019.50;;;11.14
12430;BMP280;6279;42.192;24.326;2022-12-11T03:41:30;97004.56;;;11.09
12430;BMP280;6279;42.192;24.326;2022-12-11T03:43:58;97016.97;;;11.07
12430;BMP280;6279;42.192;24.326;2022-12-11T03:46:29;97010.34;;;11.11
12430;BMP280;6279;42.192;24.326;2022-12-11T03:49:00;96987.94;;;11.10
12430;BMP280;6279;42.192;24.326;2022-12-11T03:51:28;96997.25;;;11.00
12430;BMP280;6279;42.192;24.326;2022-12-11T03:53:55;97016.13;;;10.95
12430;BMP280;6279;42.192;24.326;2022-12-11T03:56:22;97010.56;;;10.92
12430;BMP280;6279;42.192;24.326;2022-12-11T03:58:49;97001.97;;;10.92
12430;BMP280;6279;42.192;24.326;2022-12-11T04:01:15;97016.38;;;10.88
12430;BMP280;6279;42.192;24.326;2022-12-11T04:03:40;97031.72;;;10.95
12430;BMP280;6279;42.192;24.326;2022-12-11T04:06:06;97032.16;;;10.93
12430;BMP280;6279;42.192;24.326;2022-12-11T04:08:31;97011.50;;;10.97
12430;BMP280;6279;42.192;24.326;2022-12-11T04:10:57;97011.84;;;11.01
12430;BMP280;6279;42.192;24.326;2022-12-11T04:13:40;96981.19;;;11.20
12430;BMP280;6279;42.192;24.326;2022-12-11T04:16:07;96980.19;;;11.21
12430;BMP280;6279;42.192;24.326;2022-12-11T04:18:32;97019.16;;;11.10
12430;BMP280;6279;42.192;24.326;2022-12-11T04:21:16;96991.16;;;11.06
12430;BMP280;6279;42.192;24.326;2022-12-11T04:24:00;96967.34;;;11.09
12430;BMP280;6279;42.192;24.326;2022-12-11T04:26:45;96949.94;;;11.09
12430;BMP280;6279;42.192;24.326;2022-12-11T04:29:13;96977.59;;;11.04
12430;BMP280;6279;42.192;24.326;2022-12-11T04:31:38;96965.66;;;11.32
12430;BMP280;6279;42.192;24.326;2022-12-11T04:34:04;96902.94;;;11.39
12430;BMP280;6279;42.192;24.326;2022-12-11T04:36:30;96960.41;;;11.78
12430;BMP280;6279;42.192;24.326;2022-12-11T04:38:55;96941.34;;;12.18
12430;BMP280;6279;42.192;24.326;2022-12-11T04:41:21;96937.25;;;12.33
12430;BMP280;6279;42.192;24.326;2022-12-11T04:43:46;96928.88;;;12.31
12430;BMP280;6279;42.192;24.326;2022-12-11T04:46:20;96912.78;;;12.56
12430;BMP280;6279;42.192;24.326;2022-12-11T04:48:47;96972.41;;;12.53
12430;BMP280;6279;42.192;24.326;2022-12-11T04:51:13;96963.56;;;12.65
12430;BMP280;6279;42.192;24.326;2022-12-11T04:53:38;96950.63;;;12.59
12430;BMP280;6279;42.192;24.326;2022-12-11T04:56:05;97017.28;;;12.55
12430;BMP280;6279;42.192;24.326;2022-12-11T04:58:31;97031.78;;;12.62
12430;BMP280;6279;42.192;24.326;2022-12-11T05:00:56;96973.97;;;12.65
12430;BMP280;6279;42.192;24.326;2022-12-11T05:03:22;96981.16;;;12.70
12430;BMP280;6279;42.192;24.326;2022-12-11T05:05:49;96997.56;;;12.59
12430;BMP280;6279;42.192;24.326;2022-12-11T05:08:19;97027.38;;;12.63
12430;BMP280;6279;42.192;24.326;2022-12-11T05:10:55;97020.81;;;12.83
12430;BMP280;6279;42.192;24.326;2022-12-11T05:13:20;97015.03;;;12.92
12430;BMP280;6279;42.192;24.326;2022-12-11T05:15:46;96997.81;;;12.91
12430;BMP280;6279;42.192;24.326;2022-12-11T05:18:13;96999.25;;;12.98
12430;BMP280;6279;42.192;24.326;2022-12-11T05:20:38;96986.31;;;13.03
12430;BMP280;6279;42.192;24.326;2022-12-11T05:23:03;96975.88;;;13.15
12430;BMP280;6279;42.192;24.326;2022-12-11T05:25:29;96991.38;;;13.32
12430;BMP280;6279;42.192;24.326;2022-12-11T05:27:54;97000.78;;;13.33
12430;BMP280;6279;42.192;24.326;2022-12-11T05:30:19;97009.06;;;13.30
12430;BMP280;6279;42.192;24.326;2022-12-11T05:32:45;97021.09;;;13.31
12430;BMP280;6279;42.192;24.326;2022-12-11T05:35:10;97034.16;;;13.31
12430;BMP280;6279;42.192;24.326;2022-12-11T05:37:36;97012.72;;;13.57
12430;BMP280;6279;42.192;24.326;2022-12-11T05:40:02;97018.06;;;13.61
12430;BMP280;6279;42.192;24.326;2022-12-11T05:42:30;97027.97;;;13.59
12430;BMP280;6279;42.192;24.326;2022-12-11T05:44:56;97017.31;;;13.50
12430;BMP280;6279;42.192;24.326;2022-12-11T05:47:21;97032.66;;;13.46
12430;BMP280;6279;42.192;24.326;2022-12-11T05:49:46;97047.53;;;13.35
12430;BMP280;6279;42.192;24.326;2022-12-11T05:52:12;97055.16;;;13.25
12430;BMP280;6279;42.192;24.326;2022-12-11T05:54:37;97055.28;;;13.18
12430;BMP280;6279;42.192;24.326;2022-12-11T05:57:03;97064.81;;;13.13
12430;BMP280;6279;42.192;24.326;2022-12-11T05:59:28;97074.34;;;13.08
12430;BMP280;6279;42.192;24.326;2022-12-11T06:01:53;97061.75;;;13.16
12430;BMP280;6279;42.192;24.326;2022-12-11T06:04:19;97074.22;;;13.14
12430;BMP280;6279;42.192;24.326;2022-12-11T06:06:44;97085.00;;;13.17
12430;BMP280;6279;42.192;24.326;2022-12-11T06:09:12;97081.72;;;13.11
12430;BMP280;6279;42.192;24.326;2022-12-11T06:11:38;97083.97;;;13.18
12430;BMP280;6279;42.192;24.326;2022-12-11T06:14:04;97081.94;;;13.20
12430;BMP280;6279;42.192;24.326;2022-12-11T06:16:29;97090.44;;;13.27
12430;BMP280;6279;42.192;24.326;2022-12-11T06:18:55;97086.13;;;13.21
12430;BMP280;6279;42.192;24.326;2022-12-11T06:21:23;97084.22;;;13.17
12430;BMP280;6279;42.192;24.326;2022-12-11T06:23:51;97105.41;;;13.20
12430;BMP280;6279;42.192;24.326;2022-12-11T06:26:17;97090.31;;;13.22
12430;BMP280;6279;42.192;24.326;2022-12-11T06:28:44;97093.06;;;13.27
12430;BMP280;6279;42.192;24.326;2022-12-11T06:31:09;97097.91;;;13.35
12430;BMP280;6279;42.192;24.326;2022-12-11T06:33:35;97089.94;;;13.53
12430;BMP280;6279;42.192;24.326;2022-12-11T06:36:05;97086.63;;;13.68
12430;BMP280;6279;42.192;24.326;2022-12-11T06:38:31;97089.53;;;13.83
12430;BMP280;6279;42.192;24.326;2022-12-11T06:40:59;97085.09;;;13.95
12430;BMP280;6279;42.192;24.326;2022-12-11T06:43:25;97086.56;;;14.18
12430;BMP280;6279;42.192;24.326;2022-12-11T06:45:51;97091.34;;;14.21
12430;BMP280;6279;42.192;24.326;2022-12-11T06:48:17;97094.03;;;14.26
12430;BMP280;6279;42.192;24.326;2022-12-11T06:50:43;97088.47;;;14.23
12430;BMP280;6279;42.192;24.326;2022-12-11T06:53:10;97084.53;;;14.20
12430;BMP280;6279;42.192;24.326;2022-12-11T06:55:36;97085.81;;;14.34
12430;BMP280;6279;42.192;24.326;2022-12-11T06:58:03;97085.97;;;14.44
12430;BMP280;6279;42.192;24.326;2022-12-11T07:00:28;97086.09;;;14.48
12430;BMP280;6279;42.192;24.326;2022-12-11T07:03:01;97077.44;;;14.64
12430;BMP280;6279;42.192;24.326;2022-12-11T07:05:26;97076.50;;;15.02
12430;BMP280;6279;42.192;24.326;2022-12-11T07:07:52;97066.44;;;15.32
12430;BMP280;6279;42.192;24.326;2022-12-11T07:10:20;97084.13;;;15.41
12430;BMP280;6279;42.192;24.326;2022-12-11T07:12:45;97094.13;;;15.65
12430;BMP280;6279;42.192;24.326;2022-12-11T07:15:11;97093.00;;;16.50
12430;BMP280;6279;42.192;24.326;2022-12-11T07:17:36;97085.41;;;18.06
12430;BMP280;6279;42.192;24.326;2022-12-11T07:20:04;97081.47;;;19.75
12430;BMP280;6279;42.192;24.326;2022-12-11T07:22:30;97093.28;;;21.14
12430;BMP280;6279;42.192;24.326;2022-12-11T07:24:55;97101.28;;;21.05
12430;BMP280;6279;42.192;24.326;2022-12-11T07:27:21;97092.56;;;20.71
12430;BMP280;6279;42.192;24.326;2022-12-11T07:29:46;97085.47;;;21.00
12430;BMP280;6279;42.192;24.326;2022-12-11T07:32:12;97081.16;;;21.08
12430;BMP280;6279;42.192;24.326;2022-12-11T07:34:37;97089.06;;;20.81
12430;BMP280;6279;42.192;24.326;2022-12-11T07:37:03;97086.53;;;20.23
12430;BMP280;6279;42.192;24.326;2022-12-11T07:39:28;97092.88;;;19.21
12430;BMP280;6279;42.192;24.326;2022-12-11T07:41:56;97094.16;;;18.45
12430;BMP280;6279;42.192;24.326;2022-12-11T07:44:21;97096.41;;;18.03
12430;BMP280;6279;42.192;24.326;2022-12-11T07:46:46;97096.03;;;17.80
12430;BMP280;6279;42.192;24.326;2022-12-11T07:49:12;97086.34;;;17.90
12430;BMP280;6279;42.192;24.326;2022-12-11T07:51:37;97084.75;;;18.88
12430;BMP280;6279;42.192;24.326;2022-12-11T07:54:06;97078.03;;;19.74
12430;BMP280;6279;42.192;24.326;2022-12-11T07:56:32;97088.53;;;20.46
12430;BMP280;6279;42.192;24.326;2022-12-11T07:59:00;97082.75;;;22.29
12430;BMP280;6279;42.192;24.326;2022-12-11T08:01:27;97090.63;;;24.70
12430;BMP280;6279;42.192;24.326;2022-12-11T08:03:54;97083.72;;;27.56
12430;BMP280;6279;42.192;24.326;2022-12-11T08:06:25;97111.28;;;25.89
12430;BMP280;6279;42.192;24.326;2022-12-11T08:08:55;97107.19;;;23.30
12430;BMP280;6279;42.192;24.326;2022-12-11T08:11:24;97102.53;;;23.09
12430;BMP280;6279;42.192;24.326;2022-12-11T08:13:53;97101.00;;;23.34
12430;BMP280;6279;42.192;24.326;2022-12-11T08:16:19;97097.03;;;22.69
12430;BMP280;6279;42.192;24.326;2022-12-11T08:18:45;97081.88;;;22.75
12430;BMP280;6279;42.192;24.326;2022-12-11T08:21:16;97089.84;;;22.52
12430;BMP280;6279;42.192;24.326;2022-12-11T08:23:41;97091.94;;;21.96
12430;BMP280;6279;42.192;24.326;2022-12-11T08:26:09;97086.03;;;20.97
12430;BMP280;6279;42.192;24.326;2022-12-11T08:28:35;97088.00;;;19.82
12430;BMP280;6279;42.192;24.326;2022-12-11T08:31:03;97094.38;;;19.61
12430;BMP280;6279;42.192;24.326;2022-12-11T08:33:29;97087.81;;;19.54
12430;BMP280;6279;42.192;24.326;2022-12-11T08:35:54;97079.91;;;19.54
12430;BMP280;6279;42.192;24.326;2022-12-11T08:38:20;97089.91;;;19.72
12430;BMP280;6279;42.192;24.326;2022-12-11T08:40:45;97083.44;;;20.07
12430;BMP280;6279;42.192;24.326;2022-12-11T08:43:10;97094.44;;;20.23
12430;BMP280;6279;42.192;24.326;2022-12-11T08:45:36;97090.94;;;20.80
12430;BMP280;6279;42.192;24.326;2022-12-11T08:48:02;97089.13;;;21.64
12430;BMP280;6279;42.192;24.326;2022-12-11T08:50:27;97093.38;;;22.47
12430;BMP280;6279;42.192;24.326;2022-12-11T08:52:53;97078.41;;;22.92
12430;BMP280;6279;42.192;24.326;2022-12-11T08:55:19;97073.69;;;24.05
12430;BMP280;6279;42.192;24.326;2022-12-11T08:57:44;97091.72;;;25.12
12430;BMP280;6279;42.192;24.326;2022-12-11T09:00:11;97095.25;;;27.85
12430;BMP280;6279;42.192;24.326;2022-12-11T09:02:37;97089.88;;;30.40
12430;BMP280;6279;42.192;24.326;2022-12-11T09:05:03;97094.63;;;31.90
12430;BMP280;6279;42.192;24.326;2022-12-11T09:07:32;97093.81;;;34.17
12430;BMP280;6279;42.192;24.326;2022-12-11T09:09:57;97089.53;;;34.38
12430;BMP280;6279;42.192;24.326;2022-12-11T09:12:23;97078.75;;;33.94
12430;BMP280;6279;42.192;24.326;2022-12-11T09:14:48;97080.91;;;33.45
12430;BMP280;6279;42.192;24.326;2022-12-11T09:17:14;97081.69;;;32.56
12430;BMP280;6279;42.192;24.326;2022-12-11T09:19:39;97082.91;;;31.40
12430;BMP280;6279;42.192;24.326;2022-12-11T09:22:04;97095.41;;;29.77
12430;BMP280;6279;42.192;24.326;2022-12-11T09:24:30;97088.09;;;28.62
12430;BMP280;6279;42.192;24.326;2022-12-11T09:26:58;97087.81;;;27.98
12430;BMP280;6279;42.192;24.326;2022-12-11T09:29:23;97083.34;;;27.66
12430;BMP280;6279;42.192;24.326;2022-12-11T09:31:49;97070.56;;;27.34
12430;BMP280;6279;42.192;24.326;2022-12-11T09:34:14;97053.19;;;27.04
12430;BMP280;6279;42.192;24.326;2022-12-11T09:36:41;97038.88;;;26.41
12430;BMP280;6279;42.192;24.326;2022-12-11T09:39:10;97027.75;;;27.23
12430;BMP280;6279;42.192;24.326;2022-12-11T09:46:39;97029.94;;;27.12
12430;BMP280;6279;42.192;24.326;2022-12-11T09:49:22;97034.03;;;26.93
12430;BMP280;6279;42.192;24.326;2022-12-11T09:52:16;97021.94;;;27.04
12430;BMP280;6279;42.192;24.326;2022-12-11T09:54:48;97013.47;;;26.19
12430;BMP280;6279;42.192;24.326;2022-12-11T09:57:18;97017.16;;;24.74
12430;BMP280;6279;42.192;24.326;2022-12-11T10:08:29;97003.81;;;27.71
12430;BMP280;6279;42.192;24.326;2022-12-11T10:18:57;96998.38;;;29.83
12430;BMP280;6279;42.192;24.326;2022-12-11T10:21:23;96997.69;;;29.63
12430;BMP280;6279;42.192;24.326;2022-12-11T10:23:58;96998.75;;;30.05
12430;BMP280;6279;42.192;24.326;2022-12-11T10:26:27;96978.88;;;31.10
12430;BMP280;6279;42.192;24.326;2022-12-11T10:28:52;96977.53;;;31.92
12430;BMP280;6279;42.192;24.326;2022-12-11T10:31:26;96969.59;;;31.65
12430;BMP280;6279;42.192;24.326;2022-12-11T10:34:11;96973.13;;;28.74
12430;BMP280;6279;42.192;24.326;2022-12-11T10:36:40;96966.59;;;28.03
12430;BMP280;6279;42.192;24.326;2022-12-11T10:39:19;96963.44;;;27.44
12430;BMP280;6279;42.192;24.326;2022-12-11T10:41:49;96964.00;;;25.88
12430;BMP280;6279;42.192;24.326;2022-12-11T10:46:41;96944.88;;;25.61
12430;BMP280;6279;42.192;24.326;2022-12-11T10:49:20;96937.88;;;25.35
12430;BMP280;6279;42.192;24.326;2022-12-11T10:51:46;96938.41;;;24.64
12430;BMP280;6279;42.192;24.326;2022-12-11T10:56:55;96936.38;;;24.62
12430;BMP280;6279;42.192;24.326;2022-12-11T10:59:32;96928.13;;;24.93
12430;BMP280;6279;42.192;24.326;2022-12-11T11:01:58;96929.94;;;25.14
12430;BMP280;6279;42.192;24.326;2022-12-11T11:04:30;96926.66;;;25.17
12430;BMP280;6279;42.192;24.326;2022-12-11T11:07:23;96916.13;;;25.33
12430;BMP280;6279;42.192;24.326;2022-12-11T11:09:50;96912.72;;;25.50
12430;BMP280;6279;42.192;24.326;2022-12-11T11:12:26;96916.53;;;25.65
12430;BMP280;6279;42.192;24.326;2022-12-11T11:15:10;96916.25;;;25.75
12430;BMP280;6279;42.192;24.326;2022-12-11T11:17:43;96916.81;;;25.55
12430;BMP280;6279;42.192;24.326;2022-12-11T11:20:19;96911.78;;;25.46
12430;BMP280;6279;42.192;24.326;2022-12-11T11:22:56;96921.88;;;25.27
12430;BMP280;6279;42.192;24.326;2022-12-11T11:25:24;96909.38;;;24.98
12430;BMP280;6279;42.192;24.326;2022-12-11T11:27:53;96912.47;;;24.40
12430;BMP280;6279;42.192;24.326;2022-12-11T11:30:31;96937.19;;;24.06
12430;BMP280;6279;42.192;24.326;2022-12-11T11:33:03;96925.88;;;24.00
12430;BMP280;6279;42.192;24.326;2022-12-11T11:35:30;96928.56;;;23.87
12430;BMP280;6279;42.192;24.326;2022-12-11T11:38:03;96933.03;;;23.78
12430;BMP280;6279;42.192;24.326;2022-12-11T11:40:37;96937.16;;;23.58
12430;BMP280;6279;42.192;24.326;2022-12-11T11:51:36;96915.25;;;23.26
12430;BMP280;6279;42.192;24.326;2022-12-11T11:54:02;96919.28;;;23.24
12430;BMP280;6279;42.192;24.326;2022-12-11T11:56:32;96917.22;;;23.08
12430;BMP280;6279;42.192;24.326;2022-12-11T11:59:12;96908.28;;;22.90
12430;BMP280;6279;42.192;24.326;2022-12-11T12:01:43;96912.94;;;22.67
12430;BMP280;6279;42.192;24.326;2022-12-11T12:04:09;96908.44;;;22.49
12430;BMP280;6279;42.192;24.326;2022-12-11T12:06:45;96910.28;;;22.36
12430;BMP280;6279;42.192;24.326;2022-12-11T12:14:23;96900.44;;;22.23
12430;BMP280;6279;42.192;24.326;2022-12-11T12:19:44;96911.47;;;22.12
12430;BMP280;6279;42.192;24.326;2022-12-11T12:25:30;96906.59;;;21.82
12430;BMP280;6279;42.192;24.326;2022-12-11T12:31:05;96902.69;;;21.39
12430;BMP280;6279;42.192;24.326;2022-12-11T12:42:04;96894.84;;;21.34
12430;BMP280;6279;42.192;24.326;2022-12-11T12:47:26;96888.88;;;21.24
12430;BMP280;6279;42.192;24.326;2022-12-11T12:49:54;96891.31;;;21.20
12430;BMP280;6279;42.192;24.326;2022-12-11T12:52:34;96889.38;;;21.03
12430;BMP280;6279;42.192;24.326;2022-12-11T12:55:15;96900.56;;;20.95
12430;BMP280;6279;42.192;24.326;2022-12-11T13:06:09;96892.31;;;20.73
12430;BMP280;6279;42.192;24.326;2022-12-11T13:08:45;96892.50;;;20.59
12430;BMP280;6279;42.192;24.326;2022-12-11T13:11:14;96887.09;;;20.41
12430;BMP280;6279;42.192;24.326;2022-12-11T13:13:41;96885.16;;;20.23
12430;BMP280;6279;42.192;24.326;2022-12-11T13:18:46;96894.72;;;20.14
12430;BMP280;6279;42.192;24.326;2022-12-11T13:23:53;96905.00;;;19.78
12430;BMP280;6279;42.192;24.326;2022-12-11T13:26:30;96895.78;;;19.76
12430;BMP280;6279;42.192;24.326;2022-12-11T13:28:56;96902.97;;;19.70
12430;BMP280;6279;42.192;24.326;2022-12-11T13:31:37;96891.69;;;19.55
12430;BMP280;6279;42.192;24.326;2022-12-11T13:34:22;96911.22;;;19.49
12430;BMP280;6279;42.192;24.326;2022-12-11T13:36:52;96915.94;;;19.52
12430;BMP280;6279;42.192;24.326;2022-12-11T13:39:26;96907.50;;;19.55
12430;BMP280;6279;42.192;24.326;2022-12-11T13:42:30;96916.69;;;19.62
12430;BMP280;6279;42.192;24.326;2022-12-11T13:44:57;96904.81;;;19.70
12430;BMP280;6279;42.192;24.326;2022-12-11T13:47:23;96916.09;;;19.75
12430;BMP280;6279;42.192;24.326;2022-12-11T13:49:53;96906.63;;;19.74
12430;BMP280;6279;42.192;24.326;2022-12-11T13:52:22;96915.38;;;19.60
12430;BMP280;6279;42.192;24.326;2022-12-11T13:54:54;96920.13;;;19.58
12430;BMP280;6279;42.192;24.326;2022-12-11T13:57:23;96925.91;;;19.70
12430;BMP280;6279;42.192;24.326;2022-12-11T13:59:57;96920.63;;;19.70
12430;BMP280;6279;42.192;24.326;2022-12-11T14:02:29;96921.69;;;19.59
12430;BMP280;6279;42.192;24.326;2022-12-11T14:05:07;96926.47;;;19.57
12430;BMP280;6279;42.192;24.326;2022-12-11T14:07:37;96925.41;;;19.58
12430;BMP280;6279;42.192;24.326;2022-12-11T14:10:14;96927.56;;;19.46
12430;BMP280;6279;42.192;24.326;2022-12-11T14:13:04;96934.44;;;19.42
12430;BMP280;6279;42.192;24.326;2022-12-11T14:15:31;96919.13;;;19.44
12430;BMP280;6279;42.192;24.326;2022-12-11T14:17:58;96934.47;;;19.37
12430;BMP280;6279;42.192;24.326;2022-12-11T14:20:29;96930.22;;;19.41
12430;BMP280;6279;42.192;24.326;2022-12-11T14:23:19;96935.28;;;19.33
12430;BMP280;6279;42.192;24.326;2022-12-11T14:25:55;96923.41;;;19.31
12430;BMP280;6279;42.192;24.326;2022-12-11T14:28:23;96927.13;;;19.25
12430;BMP280;6279;42.192;24.326;2022-12-11T14:30:53;96921.13;;;19.10
12430;BMP280;6279;42.192;24.326;2022-12-11T14:33:21;96922.97;;;19.14
12430;BMP280;6279;42.192;24.326;2022-12-11T14:35:49;96916.09;;;19.13
12430;BMP280;6279;42.192;24.326;2022-12-11T14:38:24;96919.00;;;19.11
12430;BMP280;6279;42.192;24.326;2022-12-11T14:41:05;96918.75;;;19.13
12430;BMP280;6279;42.192;24.326;2022-12-11T14:43:36;96917.72;;;19.09
12430;BMP280;6279;42.192;24.326;2022-12-11T14:46:15;96920.09;;;19.06
12430;BMP280;6279;42.192;24.326;2022-12-11T14:48:52;96929.88;;;19.00
12430;BMP280;6279;42.192;24.326;2022-12-11T14:51:19;96929.34;;;18.93
12430;BMP280;6279;42.192;24.326;2022-12-11T14:53:46;96927.25;;;18.90
12430;BMP280;6279;42.192;24.326;2022-12-11T14:56:19;96938.06;;;18.74
12430;BMP280;6279;42.192;24.326;2022-12-11T14:59:05;96941.47;;;18.75
12430;BMP280;6279;42.192;24.326;2022-12-11T15:01:35;96938.84;;;18.70
12430;BMP280;6279;42.192;24.326;2022-12-11T15:04:22;96938.09;;;18.60
12430;BMP280;6279;42.192;24.326;2022-12-11T15:06:50;96953.34;;;18.38
12430;BMP280;6279;42.192;24.326;2022-12-11T15:11:45;96977.31;;;18.32
12430;BMP280;6279;42.192;24.326;2022-12-11T15:14:12;96982.00;;;18.05
12430;BMP280;6279;42.192;24.326;2022-12-11T15:16:39;96989.66;;;18.12
12430;BMP280;6279;42.192;24.326;2022-12-11T15:19:05;96990.44;;;18.12
12430;BMP280;6279;42.192;24.326;2022-12-11T15:21:34;96984.66;;;18.15
12430;BMP280;6279;42.192;24.326;2022-12-11T15:24:04;96989.66;;;18.17
12430;BMP280;6279;42.192;24.326;2022-12-11T15:26:43;96983.59;;;18.16
12430;BMP280;6279;42.192;24.326;2022-12-11T15:29:25;96991.78;;;18.10
12430;BMP280;6279;42.192;24.326;2022-12-11T15:34:43;97007.25;;;17.97
12430;BMP280;6279;42.192;24.326;2022-12-11T15:37:30;97002.25;;;18.05
12430;BMP280;6279;42.192;24.326;2022-12-11T15:39:57;97014.13;;;18.12
12430;BMP280;6279;42.192;24.326;2022-12-11T15:42:31;97015.69;;;18.13
12430;BMP280;6279;42.192;24.326;2022-12-11T15:44:58;97020.94;;;17.99
12430;BMP280;6279;42.192;24.326;2022-12-11T15:47:26;97030.38;;;17.95
12430;BMP280;6279;42.192;24.326;2022-12-11T15:49:54;97033.47;;;17.77
12430;BMP280;6279;42.192;24.326;2022-12-11T15:52:21;97038.47;;;17.78
12430;BMP280;6279;42.192;24.326;2022-12-11T15:54:46;97034.50;;;17.71
12430;BMP280;6279;42.192;24.326;2022-12-11T15:57:15;97045.50;;;17.63
12430;BMP280;6279;42.192;24.326;2022-12-11T15:59:42;97053.63;;;17.62
12430;BMP280;6279;42.192;24.326;2022-12-11T16:02:13;97053.09;;;17.55